createdAt,value
2023-04-26T00:00:14.076Z,14.00
2023-04-26T00:02:42.613Z,14.10
2023-04-26T00:05:11.319Z,14.00
2023-04-26T00:07:40.003Z,14.00
2023-04-26T00:10:08.865Z,13.90
2023-04-26T00:12:38.879Z,13.80
2023-04-26T00:15:07.809Z,13.90
2023-04-26T00:17:36.454Z,13.90
2023-04-26T00:20:08.611Z,13.90
2023-04-26T00:22:37.051Z,13.90
2023-04-26T00:25:05.754Z,13.90
2023-04-26T00:27:34.138Z,13.90
2023-04-26T00:30:04.120Z,13.90
2023-04-26T00:32:32.507Z,13.80
2023-04-26T00:35:00.920Z,13.80
2023-04-26T00:37:29.333Z,13.80
2023-04-26T00:39:58.357Z,13.90
2023-04-26T00:42:28.175Z,13.90
2023-04-26T00:44:57.775Z,13.90
2023-04-26T00:47:28.001Z,13.90
2023-04-26T00:49:56.631Z,13.90
2023-04-26T00:52:25.379Z,14.00
2023-04-26T00:54:54.793Z,14.00
2023-04-26T00:57:23.228Z,14.10
2023-04-26T00:59:51.649Z,14.00
2023-04-26T01:02:20.131Z,14.00
2023-04-26T01:04:50.612Z,14.00
2023-04-26T01:07:19.074Z,14.00
2023-04-26T01:09:48.348Z,13.90
2023-04-26T01:12:17.371Z,14.00
2023-04-26T01:14:46.424Z,13.90
2023-04-26T01:17:14.826Z,13.90
2023-04-26T01:19:48.244Z,13.90
2023-04-26T01:22:18.080Z,14.00
2023-04-26T01:24:50.070Z,14.00
2023-04-26T01:27:18.533Z,14.00
2023-04-26T01:29:47.686Z,13.90
2023-04-26T01:32:16.224Z,13.90
2023-04-26T01:34:44.647Z,13.90
2023-04-26T01:37:13.158Z,13.90
2023-04-26T01:39:41.549Z,13.90
2023-04-26T01:42:11.300Z,13.80
2023-04-26T01:44:39.703Z,13.80
2023-04-26T01:47:08.168Z,13.80
2023-04-26T01:49:36.745Z,13.70
2023-04-26T01:52:05.457Z,13.70
2023-04-26T01:54:34.032Z,13.70
2023-04-26T01:57:02.696Z,13.70
2023-04-26T01:59:32.590Z,13.60
2023-04-26T02:02:01.115Z,13.60
2023-04-26T02:04:29.997Z,13.50
2023-04-26T02:06:58.473Z,13.50
2023-04-26T02:09:27.004Z,13.50
2023-04-26T02:11:55.444Z,13.50
2023-04-26T02:14:23.835Z,13.40
2023-04-26T02:16:53.662Z,13.50
2023-04-26T02:19:22.091Z,13.50
2023-04-26T02:21:53.917Z,13.50
2023-04-26T02:24:23.365Z,13.40
2023-04-26T02:26:52.317Z,13.40
2023-04-26T02:29:29.401Z,13.40
2023-04-26T02:32:06.396Z,13.40
2023-04-26T02:34:34.870Z,13.40
2023-04-26T02:37:03.443Z,13.40
2023-04-26T02:39:32.348Z,13.40
2023-04-26T02:42:00.792Z,13.40
2023-04-26T02:44:30.195Z,13.40
2023-04-26T02:46:58.779Z,13.40
2023-04-26T02:49:29.256Z,13.40
2023-04-26T02:51:57.703Z,13.30
2023-04-26T02:54:26.082Z,13.30
2023-04-26T02:56:55.407Z,13.40
2023-04-26T02:59:23.791Z,13.30
2023-04-26T03:01:52.316Z,13.30
2023-04-26T03:04:20.895Z,13.30
2023-04-26T03:06:50.679Z,13.30
2023-04-26T03:09:19.030Z,13.30
2023-04-26T03:11:49.599Z,13.30
2023-04-26T03:14:18.606Z,13.20
2023-04-26T03:16:48.557Z,13.30
2023-04-26T03:19:16.983Z,13.30
2023-04-26T03:21:45.389Z,13.30
2023-04-26T03:24:15.246Z,13.30
2023-04-26T03:26:43.646Z,13.20
2023-04-26T03:29:12.542Z,13.20
2023-04-26T03:31:41.101Z,13.20
2023-04-26T03:34:09.497Z,13.20
2023-04-26T03:36:38.306Z,13.20
2023-04-26T03:39:06.943Z,13.30
2023-04-26T03:41:39.580Z,13.30
2023-04-26T03:44:08.141Z,13.40
2023-04-26T03:46:36.624Z,13.50
2023-04-26T03:49:04.997Z,13.40
2023-04-26T03:51:33.364Z,13.40
2023-04-26T03:54:01.846Z,13.40
2023-04-26T03:56:30.229Z,13.30
2023-04-26T03:59:00.083Z,13.30
2023-04-26T04:01:28.671Z,13.20
2023-04-26T04:03:57.269Z,13.30
2023-04-26T04:06:25.885Z,13.30
2023-04-26T04:08:54.527Z,13.30
2023-04-26T04:11:23.187Z,13.30
2023-04-26T04:13:51.689Z,13.40
2023-04-26T04:16:21.829Z,13.40
2023-04-26T04:18:50.762Z,13.40
2023-04-26T04:21:19.408Z,13.50
2023-04-26T04:23:48.242Z,13.40
2023-04-26T04:26:17.601Z,13.40
2023-04-26T04:28:47.415Z,13.50
2023-04-26T04:31:16.070Z,13.50
2023-04-26T04:33:45.913Z,13.50
2023-04-26T04:36:16.946Z,13.50
2023-04-26T04:38:45.473Z,13.40
2023-04-26T04:41:14.528Z,13.50
2023-04-26T04:43:42.954Z,13.50
2023-04-26T04:46:12.729Z,13.50
2023-04-26T04:48:41.642Z,13.50
2023-04-26T04:51:12.077Z,13.50
2023-04-26T04:53:40.594Z,13.50
2023-04-26T04:56:09.314Z,13.60
2023-04-26T04:58:38.104Z,13.60
2023-04-26T05:01:07.090Z,13.70
2023-04-26T05:03:35.813Z,13.80
2023-04-26T05:06:04.394Z,13.80
2023-04-26T05:08:34.295Z,13.90
2023-04-26T05:11:03.096Z,13.90
2023-04-26T05:13:31.513Z,13.90
2023-04-26T05:15:59.984Z,13.80
2023-04-26T05:18:28.489Z,13.80
2023-04-26T05:20:56.879Z,13.90
2023-04-26T05:23:25.255Z,14.00
2023-04-26T05:25:55.025Z,14.00
2023-04-26T05:28:23.505Z,14.00
2023-04-26T05:30:51.887Z,14.00
2023-04-26T05:33:20.416Z,14.00
2023-04-26T05:35:48.930Z,13.90
2023-04-26T05:38:17.651Z,13.80
2023-04-26T05:40:46.110Z,13.80
2023-04-26T05:43:16.125Z,13.80
2023-04-26T05:45:51.339Z,13.80
2023-04-26T05:48:19.844Z,13.80
2023-04-26T05:50:48.265Z,13.80
2023-04-26T05:53:16.602Z,13.90
2023-04-26T05:55:45.225Z,13.90
2023-04-26T05:58:14.999Z,13.90
2023-04-26T06:00:43.398Z,14.00
2023-04-26T06:03:12.692Z,14.00
2023-04-26T06:05:41.626Z,14.00
2023-04-26T06:08:10.448Z,14.10
2023-04-26T06:10:38.841Z,14.10
2023-04-26T06:13:07.176Z,14.20
2023-04-26T06:15:37.000Z,14.20
2023-04-26T06:18:06.027Z,14.30
2023-04-26T06:20:34.590Z,14.40
2023-04-26T06:23:02.955Z,14.30
2023-04-26T06:25:31.429Z,14.20
2023-04-26T06:28:00.766Z,14.30
2023-04-26T06:30:29.148Z,14.40
2023-04-26T06:33:00.346Z,14.40
2023-04-26T06:35:28.832Z,14.50
2023-04-26T06:37:57.305Z,14.50
2023-04-26T06:40:25.803Z,14.60
2023-04-26T06:42:54.457Z,14.60
2023-04-26T06:45:22.857Z,14.70
2023-04-26T06:47:52.509Z,14.70
2023-04-26T06:50:22.705Z,14.70
2023-04-26T06:52:51.580Z,14.80
2023-04-26T06:55:20.204Z,14.80
2023-04-26T06:57:48.623Z,14.90
2023-04-26T07:00:17.960Z,14.90
2023-04-26T07:02:46.857Z,14.80
2023-04-26T07:05:16.249Z,14.80
2023-04-26T07:07:46.109Z,14.90
2023-04-26T07:10:14.825Z,14.90
2023-04-26T07:12:43.236Z,14.90
2023-04-26T07:15:12.100Z,14.90
2023-04-26T07:17:40.533Z,14.90
2023-04-26T07:20:10.323Z,14.90
2023-04-26T07:22:38.751Z,14.90
2023-04-26T07:25:09.201Z,14.90
2023-04-26T07:27:37.766Z,14.90
2023-04-26T07:30:06.748Z,14.90
2023-04-26T07:32:35.275Z,14.90
2023-04-26T07:35:04.551Z,14.80
2023-04-26T07:37:33.007Z,14.90
2023-04-26T07:40:01.584Z,15.20
2023-04-26T07:42:31.506Z,15.30
2023-04-26T07:44:59.968Z,15.30
2023-04-26T07:47:28.521Z,15.10
2023-04-26T07:49:57.088Z,15.00
2023-04-26T07:52:25.516Z,15.10
2023-04-26T07:54:53.916Z,15.10
2023-04-26T07:57:22.288Z,15.20
2023-04-26T07:59:52.080Z,15.20
2023-04-26T08:02:24.984Z,15.20
2023-04-26T08:04:58.705Z,15.20
2023-04-26T08:07:27.289Z,15.20
2023-04-26T08:09:55.722Z,15.10
2023-04-26T08:12:24.199Z,15.10
2023-04-26T08:14:54.347Z,15.20
2023-04-26T08:17:22.822Z,15.10
2023-04-26T08:19:51.767Z,14.90
2023-04-26T08:22:20.611Z,14.90
2023-04-26T08:24:49.554Z,15.00
2023-04-26T08:27:19.194Z,15.00
2023-04-26T08:29:47.672Z,15.10
2023-04-26T08:32:17.486Z,15.20
2023-04-26T08:34:45.935Z,15.30
2023-04-26T08:37:14.319Z,15.50
2023-04-26T08:39:42.855Z,15.50
2023-04-26T08:42:15.119Z,15.60
2023-04-26T08:44:44.160Z,15.60
2023-04-26T08:47:15.973Z,15.80
2023-04-26T08:49:47.762Z,15.90
2023-04-26T08:52:17.241Z,15.90
2023-04-26T08:54:47.970Z,15.90
2023-04-26T08:57:16.676Z,16.10
2023-04-26T08:59:45.395Z,16.10
2023-04-26T09:02:17.717Z,16.20
2023-04-26T09:04:48.241Z,16.40
2023-04-26T09:07:20.565Z,16.40
2023-04-26T09:09:50.170Z,16.10
2023-04-26T09:12:19.890Z,16.10
2023-04-26T09:14:48.447Z,16.10
2023-04-26T09:17:26.477Z,16.00
2023-04-26T09:19:56.781Z,16.30
2023-04-26T09:22:31.823Z,16.10
2023-04-26T09:25:00.551Z,16.30
2023-04-26T09:27:35.958Z,16.30
2023-04-26T09:30:06.197Z,16.10
2023-04-26T09:32:51.510Z,16.20
2023-04-26T09:35:24.244Z,16.40
2023-04-26T09:37:58.738Z,16.30
2023-04-26T09:40:30.776Z,16.30
2023-04-26T09:43:00.003Z,16.40
2023-04-26T09:45:28.822Z,16.30
2023-04-26T09:47:57.924Z,16.30
2023-04-26T09:50:32.185Z,16.20
2023-04-26T09:53:00.822Z,16.30
2023-04-26T09:55:34.593Z,16.60
2023-04-26T09:58:10.213Z,16.70
2023-04-26T10:00:39.822Z,16.50
2023-04-26T10:03:09.533Z,16.30
2023-04-26T10:05:40.097Z,16.20
2023-04-26T10:08:08.722Z,16.30
2023-04-26T10:10:38.306Z,16.30
2023-04-26T10:13:07.195Z,16.40
2023-04-26T10:15:37.228Z,16.40
2023-04-26T10:18:05.811Z,16.40
2023-04-26T10:20:34.715Z,16.50
2023-04-26T10:23:06.523Z,16.40
2023-04-26T10:25:37.994Z,16.40
2023-04-26T10:28:06.755Z,16.10
2023-04-26T10:30:54.941Z,16.20
2023-04-26T10:33:24.652Z,16.30
2023-04-26T10:36:17.332Z,16.30
2023-04-26T10:39:00.531Z,16.10
2023-04-26T10:41:31.634Z,16.10
2023-04-26T10:44:01.556Z,16.10
2023-04-26T10:46:37.327Z,16.30
2023-04-26T10:49:14.201Z,16.30
2023-04-26T10:51:42.784Z,16.50
2023-04-26T10:54:11.240Z,16.00
2023-04-26T10:56:54.100Z,15.80
2023-04-26T10:59:39.773Z,16.00
2023-04-26T11:02:11.653Z,16.10
2023-04-26T11:04:52.270Z,16.00
2023-04-26T11:07:37.215Z,16.10
2023-04-26T11:10:09.539Z,16.00
2023-04-26T11:12:42.868Z,15.90
2023-04-26T11:15:13.552Z,15.90
2023-04-26T11:17:42.041Z,16.00
2023-04-26T11:20:11.207Z,16.00
2023-04-26T11:22:41.618Z,16.20
2023-04-26T11:25:11.602Z,16.30
2023-04-26T11:27:44.011Z,16.40
2023-04-26T11:30:13.243Z,16.30
2023-04-26T11:32:41.758Z,16.40
2023-04-26T11:35:10.713Z,16.30
2023-04-26T11:37:39.243Z,16.30
2023-04-26T11:40:11.426Z,16.20
2023-04-26T11:42:42.426Z,16.10
2023-04-26T11:45:11.526Z,16.30
2023-04-26T11:47:40.568Z,16.40
2023-04-26T11:50:10.157Z,16.30
2023-04-26T11:52:38.943Z,16.10
2023-04-26T11:55:08.379Z,16.30
2023-04-26T11:57:37.155Z,16.30
2023-04-26T12:00:12.492Z,16.50
2023-04-26T12:02:41.572Z,16.30
2023-04-26T12:05:11.366Z,16.20
2023-04-26T12:07:39.851Z,16.20
2023-04-26T12:10:17.798Z,16.30
2023-04-26T12:12:48.451Z,16.30
2023-04-26T12:15:18.574Z,16.40
2023-04-26T12:17:53.667Z,16.40
2023-04-26T12:20:27.920Z,16.40
2023-04-26T12:23:14.285Z,16.30
2023-04-26T12:25:43.360Z,16.40
2023-04-26T12:28:14.660Z,16.50
2023-04-26T12:30:44.604Z,16.40
2023-04-26T12:33:17.562Z,16.20
2023-04-26T12:35:46.913Z,16.20
2023-04-26T12:38:15.866Z,16.30
2023-04-26T12:40:45.460Z,16.40
2023-04-26T12:43:13.997Z,16.60
2023-04-26T12:45:42.455Z,16.50
2023-04-26T12:48:12.475Z,16.40
2023-04-26T12:50:41.469Z,16.40
2023-04-26T12:53:11.087Z,16.40
2023-04-26T12:55:39.827Z,16.40
2023-04-26T12:58:08.307Z,16.60
2023-04-26T13:00:36.738Z,16.70
2023-04-26T13:03:05.464Z,16.60
2023-04-26T13:05:35.360Z,16.60
2023-04-26T13:08:03.825Z,16.50
2023-04-26T13:10:33.022Z,16.50
2023-04-26T13:13:01.509Z,16.40
2023-04-26T13:15:30.157Z,16.40
2023-04-26T13:17:58.600Z,16.30
2023-04-26T13:20:28.907Z,16.30
2023-04-26T13:23:00.275Z,16.30
2023-04-26T13:25:28.717Z,16.40
2023-04-26T13:27:57.158Z,16.50
2023-04-26T13:30:27.273Z,16.50
2023-04-26T13:32:57.008Z,16.60
2023-04-26T13:35:27.468Z,16.60
2023-04-26T13:37:56.335Z,16.60
2023-04-26T13:40:26.378Z,16.50
2023-04-26T13:42:54.787Z,16.40
2023-04-26T13:45:23.700Z,16.50
2023-04-26T13:47:52.219Z,16.60
2023-04-26T13:50:20.792Z,16.50
2023-04-26T13:52:50.987Z,16.40
2023-04-26T13:55:19.439Z,16.40
2023-04-26T13:57:49.317Z,16.50
2023-04-26T14:00:18.221Z,16.40
2023-04-26T14:02:46.961Z,16.50
2023-04-26T14:05:17.796Z,16.40
2023-04-26T14:07:46.425Z,16.50
2023-04-26T14:10:15.376Z,16.40
2023-04-26T14:12:43.858Z,16.20
2023-04-26T14:15:15.765Z,16.20
2023-04-26T14:17:46.759Z,16.20
2023-04-26T14:20:15.559Z,16.30
2023-04-26T14:22:43.996Z,16.30
2023-04-26T14:25:12.382Z,16.20
2023-04-26T14:27:41.027Z,16.10
2023-04-26T14:30:09.810Z,16.00
2023-04-26T14:32:39.718Z,16.00
2023-04-26T14:35:08.503Z,16.00
2023-04-26T14:37:37.021Z,16.00
2023-04-26T14:40:06.308Z,16.20
2023-04-26T14:42:34.878Z,16.00
2023-04-26T14:45:03.351Z,16.00
2023-04-26T14:47:31.901Z,16.00
2023-04-26T14:50:01.880Z,16.00
2023-04-26T14:52:31.352Z,16.00
2023-04-26T14:54:59.815Z,16.00
2023-04-26T14:57:28.292Z,16.00
2023-04-26T14:59:56.628Z,16.10
2023-04-26T15:02:25.195Z,16.20
2023-04-26T15:04:53.705Z,16.20
2023-04-26T15:07:31.793Z,16.20
2023-04-26T15:10:01.713Z,16.30
2023-04-26T15:12:30.194Z,16.30
2023-04-26T15:14:58.596Z,16.10
2023-04-26T15:17:27.366Z,16.00
2023-04-26T15:19:56.477Z,16.20
2023-04-26T15:22:26.490Z,16.10
2023-04-26T15:24:54.979Z,15.90
2023-04-26T15:27:25.109Z,15.80
2023-04-26T15:29:54.957Z,15.90
2023-04-26T15:32:23.506Z,16.00
2023-04-26T15:34:51.972Z,16.00
2023-04-26T15:37:20.434Z,16.00
2023-04-26T15:39:50.423Z,16.00
2023-04-26T15:42:18.866Z,15.80
2023-04-26T15:44:47.330Z,15.80
2023-04-26T15:47:16.047Z,15.80
2023-04-26T15:49:44.480Z,15.80
2023-04-26T15:52:12.929Z,15.70
2023-04-26T15:54:41.502Z,15.70
2023-04-26T15:57:12.442Z,15.70
2023-04-26T15:59:40.919Z,15.70
2023-04-26T16:02:09.359Z,15.70
2023-04-26T16:04:38.083Z,15.60
2023-04-26T16:07:06.668Z,15.60
2023-04-26T16:09:35.513Z,15.50
2023-04-26T16:12:05.603Z,15.50
2023-04-26T16:14:35.422Z,15.40
2023-04-26T16:17:05.191Z,15.40
2023-04-26T16:19:33.734Z,15.40
2023-04-26T16:22:02.095Z,15.40
2023-04-26T16:24:30.861Z,15.40
2023-04-26T16:26:59.345Z,15.40
2023-04-26T16:29:27.891Z,15.30
2023-04-26T16:31:57.763Z,15.30
2023-04-26T16:34:26.885Z,15.40
2023-04-26T16:36:55.298Z,15.40
2023-04-26T16:39:23.715Z,15.30
2023-04-26T16:41:54.280Z,15.30
2023-04-26T16:44:22.925Z,15.20
2023-04-26T16:46:51.406Z,15.20
2023-04-26T16:49:21.365Z,15.20
2023-04-26T16:51:53.721Z,15.20
2023-04-26T16:54:22.090Z,15.10
2023-04-26T16:56:50.546Z,15.10
2023-04-26T16:59:19.365Z,15.10
2023-04-26T17:01:47.883Z,15.00
2023-04-26T17:04:16.526Z,15.10
2023-04-26T17:06:47.179Z,15.10
2023-04-26T17:09:15.630Z,15.00
2023-04-26T17:11:44.932Z,15.00
2023-04-26T17:14:13.498Z,15.00
2023-04-26T17:16:42.205Z,15.10
2023-04-26T17:19:10.932Z,15.10
2023-04-26T17:21:39.407Z,15.20
2023-04-26T17:24:09.474Z,15.30
2023-04-26T17:26:38.209Z,15.30
2023-04-26T17:29:06.635Z,15.30
2023-04-26T17:31:35.102Z,15.40
2023-04-26T17:34:05.057Z,15.40
2023-04-26T17:36:33.743Z,15.60
2023-04-26T17:39:02.155Z,15.60
2023-04-26T17:41:31.978Z,15.60
2023-04-26T17:44:00.410Z,15.60
2023-04-26T17:46:28.893Z,15.50
2023-04-26T17:48:57.364Z,15.50
2023-04-26T17:51:25.796Z,15.50
2023-04-26T17:53:54.304Z,15.50
2023-04-26T17:56:23.062Z,15.40
2023-04-26T17:58:52.885Z,15.40
2023-04-26T18:01:21.354Z,15.40
2023-04-26T18:03:50.112Z,15.40
2023-04-26T18:06:19.944Z,15.40
2023-04-26T18:08:48.459Z,15.40
2023-04-26T18:11:17.829Z,15.30
2023-04-26T18:13:47.997Z,15.30
2023-04-26T18:16:17.917Z,15.30
2023-04-26T18:18:46.392Z,15.20
2023-04-26T18:21:14.883Z,15.20
2023-04-26T18:23:43.302Z,15.20
2023-04-26T18:26:11.772Z,15.10
2023-04-26T18:28:40.185Z,15.10
2023-04-26T18:31:08.718Z,15.10
2023-04-26T18:33:38.484Z,15.10
2023-04-26T18:36:07.220Z,15.00
2023-04-26T18:38:35.662Z,15.00
2023-04-26T18:41:04.065Z,15.00
2023-04-26T18:43:32.510Z,14.90
2023-04-26T18:46:00.985Z,14.90
2023-04-26T18:48:29.468Z,14.90
2023-04-26T18:50:59.325Z,14.90
2023-04-26T18:53:27.858Z,14.90
2023-04-26T18:55:57.134Z,14.90
2023-04-26T18:58:25.601Z,14.90
2023-04-26T19:00:54.076Z,14.90
2023-04-26T19:03:22.881Z,14.80
2023-04-26T19:05:51.725Z,14.80
2023-04-26T19:08:21.537Z,14.90
2023-04-26T19:10:50.126Z,14.80
2023-04-26T19:13:19.324Z,14.80
2023-04-26T19:15:48.027Z,14.80
2023-04-26T19:18:18.028Z,14.70
2023-04-26T19:20:46.476Z,14.70
2023-04-26T19:23:14.893Z,14.70
2023-04-26T19:25:44.710Z,14.60
2023-04-26T19:28:13.146Z,14.60
2023-04-26T19:30:41.675Z,14.50
2023-04-26T19:33:10.166Z,14.50
2023-04-26T19:35:38.858Z,14.50
2023-04-26T19:38:07.358Z,14.40
2023-04-26T19:40:35.828Z,14.30
2023-04-26T19:43:05.730Z,14.20
2023-04-26T19:45:34.210Z,14.20
2023-04-26T19:48:02.759Z,14.20
2023-04-26T19:50:31.212Z,14.10
2023-04-26T19:52:59.631Z,14.00
2023-04-26T19:55:29.391Z,14.00
2023-04-26T19:57:59.413Z,13.90
2023-04-26T20:00:30.412Z,13.90
2023-04-26T20:02:59.406Z,13.90
2023-04-26T20:05:27.920Z,13.80
2023-04-26T20:07:56.734Z,13.80
2023-04-26T20:10:25.241Z,13.70
2023-04-26T20:12:54.320Z,13.70
2023-04-26T20:15:22.921Z,13.80
2023-04-26T20:17:52.831Z,13.80
2023-04-26T20:20:21.380Z,13.80
2023-04-26T20:22:49.916Z,13.80
2023-04-26T20:25:20.041Z,13.70
2023-04-26T20:27:48.743Z,13.70
2023-04-26T20:30:17.193Z,13.70
2023-04-26T20:32:45.736Z,13.60
2023-04-26T20:35:15.542Z,13.60
2023-04-26T20:37:44.031Z,13.50
2023-04-26T20:40:12.683Z,13.50
2023-04-26T20:42:41.137Z,13.50
2023-04-26T20:45:10.322Z,13.50
2023-04-26T20:47:38.785Z,13.50
2023-04-26T20:50:07.873Z,13.60
2023-04-26T20:52:37.721Z,13.50
2023-04-26T20:55:06.403Z,13.50
2023-04-26T20:57:34.952Z,13.40
2023-04-26T21:00:03.851Z,13.50
2023-04-26T21:02:32.770Z,13.50
2023-04-26T21:05:01.437Z,13.50
2023-04-26T21:07:29.919Z,13.60
2023-04-26T21:09:59.739Z,13.60
2023-04-26T21:12:28.270Z,13.60
2023-04-26T21:14:56.672Z,13.60
2023-04-26T21:17:25.176Z,13.60
2023-04-26T21:19:54.314Z,13.50
2023-04-26T21:22:22.857Z,13.60
2023-04-26T21:24:51.972Z,13.60
2023-04-26T21:27:21.752Z,13.70
2023-04-26T21:29:50.183Z,13.60
2023-04-26T21:32:18.585Z,13.70
2023-04-26T21:34:47.021Z,13.60
2023-04-26T21:37:16.758Z,13.70
2023-04-26T21:39:45.272Z,13.60
2023-04-26T21:42:13.902Z,13.60
2023-04-26T21:44:43.787Z,13.50
2023-04-26T21:47:12.229Z,13.40
2023-04-26T21:49:40.683Z,13.30
2023-04-26T21:52:09.210Z,13.20
2023-04-26T21:54:37.654Z,13.20
2023-04-26T21:57:06.965Z,13.20
2023-04-26T21:59:36.450Z,13.20
2023-04-26T22:02:06.846Z,13.20
2023-04-26T22:04:35.285Z,13.20
2023-04-26T22:07:03.893Z,13.20
2023-04-26T22:09:32.338Z,13.20
2023-04-26T22:12:01.517Z,13.30
2023-04-26T22:14:30.097Z,13.30
2023-04-26T22:16:58.544Z,13.30
2023-04-26T22:19:28.403Z,13.30
2023-04-26T22:21:56.866Z,13.30
2023-04-26T22:24:25.314Z,13.30
2023-04-26T22:26:53.790Z,13.20
2023-04-26T22:29:22.224Z,13.30
2023-04-26T22:31:50.729Z,13.20
2023-04-26T22:34:20.112Z,13.30
2023-04-26T22:36:49.910Z,13.30
2023-04-26T22:39:18.346Z,13.30
2023-04-26T22:41:46.760Z,13.20
2023-04-26T22:44:15.836Z,13.30
2023-04-26T22:46:44.467Z,13.30
2023-04-26T22:49:13.174Z,13.30
2023-04-26T22:51:45.993Z,13.20
2023-04-26T22:54:20.572Z,13.20
2023-04-26T22:56:49.013Z,13.20
2023-04-26T22:59:17.418Z,13.30
2023-04-26T23:01:46.165Z,13.30
2023-04-26T23:04:14.647Z,13.40
2023-04-26T23:06:43.705Z,13.40
2023-04-26T23:09:12.741Z,13.40
2023-04-26T23:11:43.681Z,13.40
2023-04-26T23:14:12.127Z,13.40
2023-04-26T23:16:40.546Z,13.40
2023-04-26T23:19:09.643Z,13.30
2023-04-26T23:21:38.283Z,13.20
2023-04-26T23:24:07.084Z,13.20
2023-04-26T23:26:35.558Z,13.10
2023-04-26T23:29:05.382Z,13.00
2023-04-26T23:31:33.919Z,12.90
2023-04-26T23:34:02.485Z,13.00
2023-04-26T23:36:30.939Z,12.80
2023-04-26T23:38:59.316Z,12.70
2023-04-26T23:41:27.781Z,12.70
2023-04-26T23:43:56.226Z,12.60
2023-04-26T23:46:26.191Z,12.60
2023-04-26T23:48:54.727Z,12.60
2023-04-26T23:51:23.200Z,12.60
2023-04-26T23:53:51.641Z,12.60
2023-04-26T23:56:20.088Z,12.60
2023-04-26T23:58:48.536Z,12.70
